createdAt,value
2022-08-11T00:02:26.896Z,23.03
2022-08-11T00:05:15.426Z,23.03
2022-08-11T00:08:01.976Z,23.03
2022-08-11T00:10:53.985Z,23.04
2022-08-11T00:13:45.995Z,23.04
2022-08-11T00:16:32.192Z,23.03
2022-08-11T00:20:12.447Z,23.00
2022-08-11T00:22:30.701Z,22.91
2022-08-11T00:25:21.099Z,22.95
2022-08-11T00:28:33.296Z,22.89
2022-08-11T00:31:25.876Z,22.84
2022-08-11T00:34:12.634Z,22.86
2022-08-11T00:37:10.759Z,22.73
2022-08-11T00:39:57.995Z,22.75
2022-08-11T00:42:54.429Z,22.65
2022-08-11T00:45:43.503Z,22.64
2022-08-11T00:48:36.627Z,22.56
2022-08-11T00:52:04.664Z,22.47
2022-08-11T00:54:58.004Z,22.53
2022-08-11T00:58:22.543Z,22.47
2022-08-11T01:01:17.684Z,22.44
2022-08-11T01:04:41.493Z,22.39
2022-08-11T01:08:06.658Z,22.37
2022-08-11T01:11:07.823Z,22.38
2022-08-11T01:14:14.884Z,22.29
2022-08-11T01:17:38.422Z,22.29
2022-08-11T01:21:02.249Z,22.25
2022-08-11T01:24:10.976Z,22.22
2022-08-11T01:27:02.946Z,22.13
2022-08-11T01:30:16.499Z,22.18
2022-08-11T01:33:21.276Z,22.17
2022-08-11T01:36:26.221Z,22.09
2022-08-11T01:39:49.519Z,22.08
2022-08-11T01:43:22.294Z,22.05
2022-08-11T01:46:36.228Z,21.98
2022-08-11T01:50:09.672Z,21.97
2022-08-11T01:53:10.812Z,21.74
2022-08-11T01:56:21.849Z,21.98
2022-08-11T01:59:21.373Z,22.02
2022-08-11T02:02:46.126Z,21.97
2022-08-11T02:06:01.313Z,21.93
2022-08-11T02:08:59.702Z,21.86
2022-08-11T02:11:47.810Z,22.01
2022-08-11T02:14:40.235Z,21.99
2022-08-11T02:17:35.435Z,22.02
2022-08-11T02:20:46.598Z,21.90
2022-08-11T02:24:05.912Z,21.99
2022-08-11T02:27:02.678Z,22.02
2022-08-11T02:29:55.836Z,22.02
2022-08-11T02:33:06.097Z,21.99
2022-08-11T02:36:05.381Z,22.07
2022-08-11T02:39:01.831Z,22.06
2022-08-11T02:42:32.892Z,21.98
2022-08-11T02:45:48.758Z,21.91
2022-08-11T02:49:25.418Z,22.03
2022-08-11T02:52:26.877Z,21.96
2022-08-11T02:55:57.140Z,22.06
2022-08-11T02:59:22.901Z,22.06
2022-08-11T03:02:23.482Z,22.11
2022-08-11T03:05:21.888Z,22.05
2022-08-11T03:08:51.341Z,22.03
2022-08-11T03:12:23.877Z,21.90
2022-08-11T03:15:31.587Z,21.98
2022-08-11T03:18:28.996Z,22.01
2022-08-11T03:21:20.521Z,22.05
2022-08-11T03:24:33.455Z,21.91
2022-08-11T03:27:51.086Z,21.94
2022-08-11T03:30:59.038Z,21.96
2022-08-11T03:34:06.650Z,21.97
2022-08-11T03:37:35.199Z,22.03
2022-08-11T03:40:51.796Z,22.04
2022-08-11T03:44:17.134Z,21.95
2022-08-11T03:47:27.792Z,21.98
2022-08-11T03:50:22.700Z,22.02
2022-08-11T03:53:28.169Z,22.06
2022-08-11T03:56:26.454Z,21.94
2022-08-11T03:59:21.861Z,22.02
2022-08-11T04:02:32.657Z,21.93
2022-08-11T04:05:40.575Z,21.93
2022-08-11T04:08:45.437Z,21.84
2022-08-11T04:12:09.137Z,21.87
2022-08-11T04:15:57.751Z,21.90
2022-08-11T04:19:50.155Z,21.81
2022-08-11T04:23:13.514Z,21.80
2022-08-11T04:26:41.873Z,21.77
2022-08-11T04:29:36.041Z,21.88
2022-08-11T04:32:31.652Z,21.85
2022-08-11T04:35:51.163Z,21.81
2022-08-11T04:39:05.323Z,21.77
2022-08-11T04:42:27.181Z,21.85
2022-08-11T04:45:42.139Z,21.84
2022-08-11T04:48:46.666Z,21.94
2022-08-11T04:51:53.919Z,21.93
2022-08-11T04:55:22.590Z,21.95
2022-08-11T04:58:43.442Z,21.94
2022-08-11T05:01:57.125Z,21.92
2022-08-11T05:05:32.982Z,21.84
2022-08-11T05:08:28.198Z,21.72
2022-08-11T05:11:41.447Z,21.80
2022-08-11T05:15:04.702Z,21.56
2022-08-11T05:18:39.012Z,21.72
2022-08-11T05:21:44.768Z,21.84
2022-08-11T05:25:06.754Z,21.82
2022-08-11T05:28:32.279Z,21.78
2022-08-11T05:31:39.403Z,21.89
2022-08-11T05:34:45.200Z,21.96
2022-08-11T05:37:34.166Z,22.04
2022-08-11T05:40:38.874Z,22.07
2022-08-11T05:44:20.214Z,22.12
2022-08-11T05:47:08.367Z,22.19
2022-08-11T05:50:13.561Z,22.24
2022-08-11T05:53:22.090Z,22.34
2022-08-11T05:56:22.384Z,22.43
2022-08-11T05:59:14.815Z,22.49
2022-08-11T06:02:03.212Z,22.61
2022-08-11T06:04:57.220Z,22.65
2022-08-11T06:07:48.623Z,22.73
2022-08-11T06:10:42.571Z,22.79
2022-08-11T06:13:33.959Z,22.83
2022-08-11T06:16:25.955Z,22.90
2022-08-11T06:19:12.630Z,23.00
2022-08-11T06:21:59.777Z,23.08
2022-08-11T06:24:55.244Z,23.04
2022-08-11T06:27:43.251Z,23.22
2022-08-11T06:30:42.577Z,23.22
2022-08-11T06:33:43.914Z,23.29
2022-08-11T06:36:39.220Z,23.28
2022-08-11T06:39:37.922Z,23.40
2022-08-11T06:42:33.149Z,23.40
2022-08-11T06:45:24.910Z,23.49
2022-08-11T06:48:17.242Z,23.51
2022-08-11T06:51:13.421Z,23.52
2022-08-11T06:54:04.711Z,23.56
2022-08-11T06:57:29.543Z,23.62
2022-08-11T13:04:01.249Z,27.26
2022-08-11T13:06:48.410Z,27.55
2022-08-11T13:09:37.536Z,27.81
2022-08-11T13:12:43.062Z,28.17
2022-08-11T13:15:29.295Z,28.47
2022-08-11T13:18:16.850Z,28.79
2022-08-11T13:21:02.731Z,28.92
2022-08-11T13:24:00.636Z,29.00
2022-08-11T13:26:51.791Z,29.21
2022-08-11T13:29:40.469Z,29.20
2022-08-11T13:32:26.447Z,29.28
2022-08-11T13:35:15.437Z,29.49
2022-08-11T13:38:18.871Z,29.52
2022-08-11T13:41:28.361Z,29.40
2022-08-11T13:44:21.658Z,29.30
2022-08-11T13:47:13.878Z,29.44
2022-08-11T13:50:00.094Z,29.33
2022-08-11T13:52:50.115Z,29.38
2022-08-11T13:55:51.351Z,29.56
2022-08-11T13:58:40.658Z,29.66
2022-08-11T14:02:19.794Z,29.77
2022-08-11T14:04:54.766Z,29.77
2022-08-11T14:07:50.001Z,29.94
2022-08-11T14:10:38.442Z,30.04
2022-08-11T14:13:41.608Z,30.00
2022-08-11T14:16:37.051Z,30.29
2022-08-11T14:19:25.396Z,30.58
2022-08-11T14:22:13.722Z,30.92
2022-08-11T14:25:00.025Z,31.16
2022-08-11T14:28:30.185Z,31.26
2022-08-11T14:31:01.216Z,31.37
2022-08-11T14:34:01.001Z,31.52
2022-08-11T14:36:59.650Z,31.57
2022-08-11T14:39:51.922Z,31.46
2022-08-11T14:42:57.641Z,31.44
2022-08-11T14:46:03.686Z,31.43
2022-08-11T14:48:50.258Z,31.46
2022-08-11T14:51:36.143Z,31.50
2022-08-11T14:54:47.130Z,31.58
2022-08-11T14:57:55.753Z,31.79
2022-08-11T15:00:43.331Z,31.96
2022-08-11T15:03:31.780Z,32.14
2022-08-11T15:06:17.982Z,32.31
2022-08-11T15:09:09.084Z,32.46
2022-08-11T15:12:32.755Z,32.61
2022-08-11T15:15:39.242Z,32.82
2022-08-11T15:18:26.592Z,32.96
2022-08-11T15:21:31.275Z,33.08
2022-08-11T15:24:20.130Z,33.26
2022-08-11T15:27:31.259Z,33.34
2022-08-11T15:30:35.888Z,33.38
2022-08-11T15:33:40.964Z,33.42
2022-08-11T15:36:48.907Z,33.39
2022-08-11T15:40:31.106Z,33.32
2022-08-11T15:43:38.797Z,33.23
2022-08-11T15:46:33.195Z,33.35
2022-08-11T15:50:11.855Z,33.30
2022-08-11T15:53:27.327Z,33.15
2022-08-11T15:56:13.320Z,33.06
2022-08-11T15:59:42.314Z,32.98
2022-08-11T16:02:36.532Z,32.77
2022-08-11T16:05:45.843Z,32.75
2022-08-11T16:08:33.304Z,32.57
2022-08-11T16:11:21.827Z,32.43
2022-08-11T16:14:29.206Z,32.28
2022-08-11T16:17:17.553Z,32.19
2022-08-11T16:20:05.917Z,32.01
2022-08-11T16:23:02.125Z,31.89
2022-08-11T16:27:02.678Z,31.73
2022-08-11T16:29:00.302Z,31.40
2022-08-11T16:32:07.030Z,31.36
2022-08-11T16:35:19.084Z,31.31
2022-08-11T16:38:23.872Z,31.02
2022-08-11T16:41:14.117Z,31.00
2022-08-11T16:44:18.905Z,30.91
2022-08-11T16:48:01.851Z,30.79
2022-08-11T16:50:30.113Z,30.60
2022-08-11T16:53:17.502Z,30.47
2022-08-11T16:56:04.340Z,30.34
2022-08-11T16:59:17.595Z,30.24
2022-08-11T17:02:18.278Z,30.18
2022-08-11T17:05:28.453Z,30.06
2022-08-11T17:08:33.378Z,30.02
2022-08-11T17:11:39.558Z,29.91
2022-08-11T17:14:44.945Z,29.76
2022-08-11T17:17:34.232Z,29.74
2022-08-11T17:20:39.429Z,29.62
2022-08-11T17:23:45.389Z,29.62
2022-08-11T17:26:54.161Z,29.49
2022-08-11T17:29:54.650Z,29.43
2022-08-11T17:33:08.279Z,29.31
2022-08-11T17:35:56.017Z,29.27
2022-08-11T17:38:44.091Z,29.23
2022-08-11T17:41:48.827Z,29.09
2022-08-11T17:44:54.109Z,29.07
2022-08-11T17:48:01.151Z,28.93
2022-08-11T17:50:48.734Z,28.93
2022-08-11T17:54:02.156Z,28.83
2022-08-11T17:57:23.361Z,28.74
2022-08-11T18:00:10.183Z,28.70
2022-08-11T18:03:20.690Z,28.66
2022-08-11T18:06:12.661Z,28.51
2022-08-11T18:09:17.740Z,28.42
2022-08-11T18:12:25.341Z,28.25
2022-08-11T18:15:31.732Z,28.33
2022-08-11T18:18:40.776Z,28.33
2022-08-11T18:21:46.903Z,28.27
2022-08-11T18:25:18.570Z,28.07
2022-08-11T18:28:25.716Z,28.13
2022-08-11T18:31:34.376Z,28.04
2022-08-11T18:34:47.224Z,27.99
2022-08-11T18:38:05.072Z,27.89
2022-08-11T18:41:10.457Z,27.92
2022-08-11T18:44:17.214Z,27.84
2022-08-11T18:47:33.210Z,27.58
2022-08-11T18:50:48.506Z,27.67
2022-08-11T18:54:09.734Z,27.59
2022-08-11T18:57:16.649Z,27.46
2022-08-11T19:00:21.828Z,27.34
2022-08-11T19:03:27.214Z,27.40
2022-08-11T19:06:40.072Z,27.27
2022-08-11T19:09:45.673Z,27.25
2022-08-11T19:12:55.169Z,27.15
2022-08-11T19:16:01.374Z,27.13
2022-08-11T19:19:11.294Z,27.00
2022-08-11T19:22:20.142Z,26.91
2022-08-11T19:25:47.202Z,26.96
2022-08-11T19:28:56.402Z,26.90
2022-08-11T19:32:18.471Z,26.86
2022-08-11T19:35:24.122Z,26.75
2022-08-11T19:38:30.384Z,26.63
2022-08-11T19:41:57.637Z,26.66
2022-08-11T19:45:00.428Z,26.40
2022-08-11T19:48:30.648Z,26.53
2022-08-11T19:51:31.995Z,26.51
2022-08-11T19:54:36.940Z,26.49
2022-08-11T19:57:43.206Z,26.43
2022-08-11T20:00:49.000Z,26.40
2022-08-11T20:03:53.473Z,26.36
2022-08-11T20:06:58.571Z,26.31
2022-08-11T20:10:06.475Z,26.26
2022-08-11T20:13:21.367Z,26.27
2022-08-11T20:16:38.082Z,26.22
2022-08-11T20:19:54.962Z,26.14
2022-08-11T20:23:02.773Z,26.14
2022-08-11T20:26:29.478Z,26.02
2022-08-11T20:29:33.489Z,25.97
2022-08-11T20:32:39.820Z,26.01
2022-08-11T20:35:46.826Z,25.97
2022-08-11T20:38:51.969Z,25.92
2022-08-11T20:41:59.341Z,25.81
2022-08-11T20:45:04.598Z,25.85
2022-08-11T20:48:19.267Z,25.63
2022-08-11T20:51:36.775Z,25.70
2022-08-11T20:54:46.936Z,25.71
2022-08-11T20:57:59.402Z,25.62
2022-08-11T21:01:10.488Z,25.67
2022-08-11T21:04:25.011Z,25.54
2022-08-11T21:07:29.771Z,25.62
2022-08-11T21:10:34.686Z,25.55
2022-08-11T21:13:43.514Z,25.52
2022-08-11T21:16:54.995Z,25.42
2022-08-11T21:20:07.146Z,25.50
2022-08-11T21:23:19.947Z,25.35
2022-08-11T21:26:29.876Z,25.27
2022-08-11T21:29:34.400Z,25.41
2022-08-11T21:32:41.359Z,25.34
2022-08-11T21:35:47.065Z,25.29
2022-08-11T21:38:51.607Z,25.26
2022-08-11T21:41:56.510Z,25.11
2022-08-11T21:45:02.748Z,25.13
2022-08-11T21:48:07.838Z,25.07
2022-08-11T21:51:12.258Z,25.01
2022-08-11T21:54:19.351Z,24.99
2022-08-11T21:57:25.132Z,24.95
2022-08-11T22:00:30.192Z,24.83
2022-08-11T22:03:49.909Z,24.83
2022-08-11T22:06:56.109Z,24.81
2022-08-11T22:10:00.501Z,24.86
2022-08-11T22:13:24.701Z,24.77
2022-08-11T22:16:29.488Z,24.79
2022-08-11T22:19:35.674Z,24.72
2022-08-11T22:22:51.217Z,24.74
2022-08-11T22:26:07.205Z,24.69
2022-08-11T22:29:11.989Z,24.66
2022-08-11T22:32:17.323Z,24.68
2022-08-11T22:35:23.263Z,24.68
2022-08-11T22:38:28.049Z,24.63
2022-08-11T22:41:32.501Z,24.52
2022-08-11T22:44:37.107Z,24.56
2022-08-11T22:47:41.790Z,24.41
2022-08-11T22:50:46.330Z,24.46
2022-08-11T22:53:57.545Z,24.51
2022-08-11T22:57:03.546Z,24.46
2022-08-11T23:00:09.227Z,24.45
2022-08-11T23:03:13.965Z,24.40
2022-08-11T23:06:39.650Z,24.34
2022-08-11T23:09:44.558Z,24.46
2022-08-11T23:12:49.229Z,24.38
2022-08-11T23:15:54.084Z,24.29
2022-08-11T23:18:59.728Z,24.39
2022-08-11T23:22:05.943Z,24.27
2022-08-11T23:25:17.802Z,24.36
2022-08-11T23:28:24.056Z,24.37
2022-08-11T23:31:50.605Z,24.36
2022-08-11T23:35:04.473Z,24.31
2022-08-11T23:38:23.585Z,24.25
2022-08-11T23:41:29.028Z,24.25
2022-08-11T23:44:33.569Z,24.31
2022-08-11T23:47:50.958Z,24.26
2022-08-11T23:50:55.491Z,24.20
2022-08-11T23:54:00.433Z,24.26
2022-08-11T23:57:13.565Z,24.24
